Greenville, SC (29615)

10:41 AM EDT on August 04, 2015 (GMT -0400)
Merrifield Park Subdivision | | Change Station
CLOSE
Current Station
Personal Weather Station
Location: Greenville, SC
Elevation: 1010 ft
Nearby Weather Stations

Elev 1010 ft 34.87 °N, 82.32 °W | Updated 1 second ago

Clear
Clear
86.9 °F
Feels Like 91 °F
N
0.0
Wind Variable Wind from NW
Gusts 0.0 mph

Today
High -- | Low -- °F
--% Chance of Precip.
Yesterday
High -- | Low -- °F
Precip. -- in
6:41 AM 8:29 PM
Waning Gibbous, 77% visible
Pressure 29.99 in
Visibility 10.0 miles
Clouds Clear
Heat Index 91 °F
Dew Point 69 °F
Humidity 55%
Rainfall 0.00 in
Snow Depth Not available.
UV 5 out of 12
Pollen 5.30 out of 12
Air Quality Not available.
Flu Activity Not available.
METAR KGMU 041353Z 35008KT 10SM CLR 31/16 A3003 RMK AO2 SLP156 T03060161

More Conditions Fewer Conditions

Pressure 29.99 in
Visibility 10.0 miles
Clouds Clear
Heat Index 91 °F
Dew Point 69 °F
Humidity 55%
Rainfall 0.00 in
Snow Depth Not available.
UV 5 out of 12
Pollen 5.30 out of 12
Air Quality Not available.
Flu Activity Not available.
METAR KGMU 041353Z 35008KT 10SM CLR 31/16 A3003 RMK AO2 SLP156 T03060161

More Conditions Fewer Conditions

10-Day Weather Forecast

×

Almanac

Astronomy

Aug. 04, 2015 Rise Set
Actual Time
Civil Twilight
Nautical Twilight
Astronomical Twilight
Moon
Length of Visible Light
Length of Day
Tomorrow will be .
, % of the Moon is Illuminated

Today's Extremes

State Highs State Lows

Community

WunderPhotos

Upload Photos

1,843,921 photos uploaded!

WunderBlogs® & News

Nearby

Air Quality

  Air Quality AQ Index Pollutant
Not available.

Snow Depth

Station Depth Elevation

Earthquake Activity

City Distance Mag. Time & Date
Minimum magnitude displayed is 2.5.

Coastal Water Temperatures

Place Temperature

Stations

Nearby Weather Stations

Station Location Temp. Windchill Dew Point Humidity Wind Precip. Elev Updated Type